• Join FlightAware (Why Join?)
  • Login
  • US Flag 
01:33AM EDT


 

Airport Tracker/Info


-or-


 

Live Flight TrackerFlight Track Log ✈ AAL832 ✈ 04-May-2013 ✈ KORD - KMIA

Flight Track Log - Related Links

Times and Time Zones

All times are in EDT time to prevent confusion due to time zone crossing. See the AAL832 flight status page for this flight to view local times or setup timezone preferences in your user account.

Time Position Orientation Groundspeed Altitude Reporting Facility
EDT Latitude Longitude Course Direction KTS MPH feet Rate Location/Type
05:56PM 41.9833 -87.8667 180° South 161 185 2,500  Level Chicago TRACON
05:57PM 41.9333 -87.8333 154° Southeast 213 245 4,600 1,260 Climbing Chicago TRACON
05:58PM 41.6592 -87.7184 155° Southeast  Level Estimated
05:58PM 41.8667 -87.8000 160° South 261 300 5,000  Level Chicago TRACON
05:59PM 41.5517 -87.6561 153° Southeast  Level Estimated
05:59PM 41.8000 -87.8000 180° South 257 296 5,400  Level Chicago TRACON
06:00PM 41.4441 -87.5940 166° South  Level Estimated
06:01PM 41.3366 -87.5321 180° South  Level Estimated
06:01PM 41.6433 -87.7289 161° South 266 306 12,500  Level Chicago Center
06:02PM 41.5756 -87.6797 152° Southeast 274 315 14,800 1,980 Climbing Chicago Center
06:03PM 41.4953 -87.6211 151° Southeast 321 369 16,600 1,980 Climbing Chicago Center
06:04PM 41.4072 -87.5697 156° South 343 395 18,900 1,980 Climbing Chicago Center
06:05PM 41.3056 -87.5533 173° South 367 422 20,800 1,740 Climbing Chicago Center
06:06PM 41.2006 -87.5331 172° South 376 433 22,500 1,620 Climbing Chicago Center
06:08PM 41.0933 -87.5033 168° South 389 448 24,200 1,740 Climbing Chicago Center
06:09PM 40.9617 -87.4672 168° South 402 463 26,100 1,620 Climbing Chicago Center
06:10PM 40.8503 -87.4361 168° South 408 470 27,600 1,320 Climbing Chicago Center
06:11PM 40.7336 -87.4078 170° South 421 484 28,900 1,560 Climbing Chicago Center
06:12PM 40.6206 -87.3772 168° South 418 481 30,900 1,800 Climbing Chicago Center
06:13PM 40.5089 -87.3478 169° South 409 471 32,700 1,440 Climbing Chicago Center
06:14PM 40.3981 -87.3056 164° South 406 467 33,900 1,500 Climbing Chicago Center
06:15PM 40.2914 -87.2567 161° South 405 466 35,800 1,860 Climbing Chicago Center
06:16PM 40.1678 -87.1972 160° South 396 456 37,800 1,380 Climbing Chicago Center
06:17PM 40.0817 -87.1589 161° South 400 460 38,500 600 Climbing Indianapolis Center
06:18PM 39.9764 -87.1058 159° South 405 466 39,000 240 Climbing Indianapolis Center
06:19PM 39.8806 -87.0261 147° Southeast 411 473 39,000  Level Indianapolis Center
06:20PM 39.7856 -86.9444 147° Southeast 412 474 39,000  Level Indianapolis Center
06:21PM 39.6692 -86.8478 147° Southeast 416 479 39,000  Level Indianapolis Center
06:22PM 39.5719 -86.7661 147° Southeast 420 483 39,000  Level Indianapolis Center
06:23PM 39.4742 -86.6869 148° Southeast 419 482 39,000  Level Indianapolis Center
06:24PM 39.3775 -86.6072 147° Southeast 417 480 39,000  Level Indianapolis Center
06:25PM 39.2817 -86.5275 147° Southeast 414 476 39,000  Level Indianapolis Center
06:26PM 39.1669 -86.4331 147° Southeast 411 473 39,000  Level Indianapolis Center
06:27PM 39.0714 -86.3539 147° Southeast 411 473 39,000  Level Indianapolis Center
06:28PM 38.9747 -86.2750 148° Southeast 413 475 39,000  Level Indianapolis Center
06:29PM 38.8772 -86.1961 148° Southeast 412 474 39,000  Level Indianapolis Center
06:30PM 38.7797 -86.1158 147° Southeast 412 474 39,000  Level Indianapolis Center
06:31PM 38.6819 -86.0364 148° Southeast 412 474 39,000  Level Indianapolis Center
06:32PM 38.5833 -85.9561 148° Southeast 415 478 39,000  Level Indianapolis Center
06:33PM 38.4850 -85.8778 148° Southeast 414 476 39,000  Level Indianapolis Center
06:34PM 38.3861 -85.7986 148° Southeast 416 479 39,000  Level Indianapolis Center
06:35PM 38.2875 -85.7189 148° Southeast 416 479 39,000  Level Indianapolis Center
06:36PM 38.1875 -85.6408 148° Southeast 418 481 39,000  Level Indianapolis Center
06:37PM 38.0672 -85.5456 148° Southeast 422 486 39,000  Level Indianapolis Center
06:38PM 37.9650 -85.4661 148° Southeast 426 490 39,000  Level Indianapolis Center
06:39PM 37.8631 -85.3847 148° Southeast 431 496 39,000  Level Indianapolis Center
06:40PM 37.7669 -85.3092 148° Southeast 429 494 39,000  Level Indianapolis Center
06:41PM 37.6628 -85.2286 149° Southeast 436 502 39,000  Level Indianapolis Center
06:42PM 37.5589 -85.1483 149° Southeast 437 503 39,000  Level Indianapolis Center
06:43PM 37.4361 -85.0550 149° Southeast 441 507 39,000  Level Indianapolis Center
06:44PM 37.3333 -84.9742 148° Southeast 438 504 39,000  Level Indianapolis Center
06:45PM 37.2286 -84.8939 149° Southeast 439 505 39,000  Level Indianapolis Center
06:46PM 37.1256 -84.8156 149° Southeast 434 499 39,000  Level Indianapolis Center
06:47PM 37.0275 -84.7381 148° Southeast 434 499 39,000  Level Indianapolis Center
06:48PM 36.9244 -84.6603 149° Southeast 431 496 39,000  Level Indianapolis Center
06:49PM 36.8242 -84.5831 148° Southeast 425 489 39,000  Level Indianapolis Center
06:50PM 36.7019 -84.4911 149° Southeast 426 490 39,000  Level Indianapolis Center
06:51PM 36.6011 -84.4150 149° Southeast 425 489 39,000  Level Indianapolis Center
06:52PM 36.4994 -84.3389 149° Southeast 423 487 39,000  Level Indianapolis Center
06:54PM 36.3975 -84.2622 149° Southeast 426 490 39,000  Level Indianapolis Center
06:54PM 36.2958 -84.1881 150° Southeast 423 487 39,000  Level Atlanta Center
06:55PM 36.1958 -84.1133 149° Southeast 423 487 39,000  Level Atlanta Center
06:56PM 36.0936 -84.0389 150° Southeast 423 487 39,000  Level Atlanta Center
06:57PM 35.9914 -83.9644 149° Southeast 423 487 39,000  Level Atlanta Center
06:58PM 35.9100 -83.9028 148° Southeast 423 487 39,000  Level Atlanta Center
06:59PM 35.8014 -83.8161 147° Southeast 423 487 39,000  Level Atlanta Center
07:00PM 35.6992 -83.7319 146° Southeast 430 495 39,000  Level Atlanta Center
07:01PM 35.5986 -83.6481 146° Southeast 435 501 39,000  Level Atlanta Center
07:02PM 35.4983 -83.5694 147° Southeast 435 501 39,000  Level Atlanta Center
07:03PM 35.3978 -83.4883 147° Southeast 435 501 39,000  Level Atlanta Center
07:04PM 35.2972 -83.4050 146° Southeast 435 501 39,000  Level Atlanta Center
07:05PM 35.1925 -83.3247 148° Southeast 435 501 39,000  Level Atlanta Center
07:06PM 35.0897 -83.2442 147° Southeast 435 501 39,000  Level Atlanta Center
07:07PM 34.9892 -83.1617 146° Southeast 435 501 39,000  Level Atlanta Center
07:08PM 34.8778 -83.0692 146° Southeast 435 501 39,000  Level Atlanta Center
07:09PM 34.7706 -82.9844 147° Southeast 448 516 39,000  Level Atlanta Center
07:10PM 34.6886 -82.9197 147° Southeast 448 516 39,000  Level Atlanta Center
07:11PM 34.5586 -82.8356 152° Southeast 450 518 39,000  Level Atlanta Center
07:12PM 34.4411 -82.7969 165° South 441 507 39,000 120 Level Atlanta Center
07:13PM 34.3219 -82.7536 163° South 441 507 39,300 480 Climbing Atlanta Center
07:14PM 34.2150 -82.7175 164° South 441 507 40,000 300 Climbing Atlanta Center
07:15PM 34.0997 -82.6767 164° South 441 507 40,000  Level Atlanta Center
07:16PM 33.9783 -82.6358 164° South 441 507 40,000  Level Atlanta Center
07:17PM 33.8608 -82.5953 164° South 436 502 40,000  Level Atlanta Center
07:18PM 33.7414 -82.5575 165° South 436 502 40,000  Level Atlanta Center
07:19PM 33.6094 -82.5122 164° South 441 507 40,000  Level Atlanta Center
07:20PM 33.4900 -82.4672 163° South 446 513 40,000  Level Atlanta Center
07:21PM 33.3703 -82.4294 165° South 446 513 40,000  Level Atlanta Center
07:22PM 33.2572 -82.3919 164° South 453 521 40,000  Level Atlanta Center
07:23PM 33.1356 -82.3519 165° South 453 521 40,000  Level Atlanta Center
07:24PM 33.0161 -82.3122 164° South 453 521 40,000  Level Atlanta Center
07:26PM 32.7764 -82.2303 164° South 444 511 40,000  Level Jacksonville Center
07:27PM 32.6553 -82.1894 164° South 444 511 40,000  Level Jacksonville Center
07:28PM 32.5361 -82.1508 165° South 444 511 40,000  Level Jacksonville Center
07:29PM 32.4189 -82.1125 165° South 444 511 40,000  Level Jacksonville Center
07:30PM 32.2850 -82.0694 165° South 439 505 40,000  Level Jacksonville Center
07:31PM 32.1803 -82.0358 165° South 439 505 40,000  Level Jacksonville Center
07:32PM 32.0467 -82.0150 172° South 433 498 40,000  Level Jacksonville Center
07:33PM 31.9275 -82.0089 178° South 433 498 40,000  Level Jacksonville Center
07:34PM 31.8211 -82.0025 177° South 433 498 40,000  Level Jacksonville Center
07:35PM 31.6894 -81.9917 176° South 433 498 40,000  Level Jacksonville Center
07:36PM 31.5828 -81.9853 177° South 424 488 40,000  Level Jacksonville Center
07:37PM 31.4533 -81.9769 177° South 424 488 40,000  Level Jacksonville Center
07:38PM 31.3467 -81.9681 176° South 424 488 40,000  Level Jacksonville Center
07:39PM 31.2258 -81.9669 180° South 429 494 40,000  Level Jacksonville Center
07:40PM 31.1044 -81.9536 175° South 429 494 40,000  Level Jacksonville Center
07:41PM 30.9853 -81.9450 176° South 429 494 40,000  Level Jacksonville Center
07:42PM 30.8642 -81.9367 177° South 434 499 40,000  Level Jacksonville Center
07:43PM 30.7431 -81.9281 177° South 439 505 40,000  Level Jacksonville Center
07:44PM 30.6219 -81.9197 177° South 439 505 40,000  Level Jacksonville Center
07:45PM 30.4986 -81.9067 175° South 445 512 40,000  Level Jacksonville Center
07:46PM 30.3753 -81.8981 177° South 445 512 40,000  Level Jacksonville Center
07:47PM 30.2522 -81.8897 177° South 445 512 40,000  Level Jacksonville Center
07:48PM 30.1408 -81.8261 154° Southeast 432 497 40,000  Level Jacksonville Center
07:49PM 30.0378 -81.7361 143° Southeast 437 503 40,000  Level Jacksonville Center
07:50PM 29.9200 -81.6417 145° Southeast 460 529 40,000  Level Jacksonville Center
07:51PM 29.8169 -81.5472 142° Southeast 472 543 40,000  Level Jacksonville Center
07:52PM 29.7114 -81.4603 144° Southeast 477 549 40,000  Level Jacksonville Center
07:53PM 29.6039 -81.3711 144° Southeast 477 549 40,000  Level Jacksonville Center
07:54PM 29.4964 -81.2797 143° Southeast 477 549 40,000  Level Jacksonville Center
07:55PM 29.4014 -81.1978 143° Southeast 478 550 40,000  Level Jacksonville Center
07:56PM 29.2917 -81.1117 146° Southeast 478 550 40,000  Level Jacksonville Center
07:58PM 29.0622 -81.0231 161° South 500 575 40,000  Level Miami Center
07:59PM 28.9364 -80.9733 161° South 490 564 40,000  Level Miami Center
08:00PM 28.7983 -80.9161 160° South 483 556 40,000  Level Miami Center
08:01PM 28.6725 -80.8667 161° South 478 550 40,000  Level Miami Center
08:02PM 28.5467 -80.8172 161° South 478 550 40,000  Level Miami Center
08:03PM 28.4186 -80.7656 160° South 478 550 40,000  Level Miami Center
08:04PM 28.3031 -80.7189 160° South 483 556 40,000 -300 Level Miami Center
08:05PM 28.1728 -80.6697 162° South 483 556 39,400 -1,080 Descending Miami Center
08:06PM 28.0467 -80.6231 162° South 483 556 37,900 -2,220 Descending Miami Center
08:07PM 27.9333 -80.5747 159° South 468 539 35,000 -2,760 Descending Miami Center
08:08PM 27.7800 -80.5253 164° South 484 557 32,400 -2,760 Descending Miami Center
08:09PM 27.6539 -80.4742 160° South 484 557 29,500 -3,000 Descending Miami Center
08:10PM 27.5300 -80.4283 162° South 479 551 26,400 -2,700 Descending Miami Center
08:11PM 27.4058 -80.3822 162° South 479 551 24,100 -1,200 Descending Miami Center
08:12PM 27.2836 -80.3342 161° South 473 544 24,000 -720 Descending Miami Center
08:13PM 27.1617 -80.2861 161° South 473 544 22,700 -1,680 Descending Miami Center
08:14PM 27.0478 -80.2408 161° South 459 528 20,700 -2,040 Descending Miami Center
08:15PM 26.9361 -80.1956 160° South 441 507 18,700 -2,040 Descending Miami Center
08:16PM 26.8411 -80.1533 158° South 425 489 16,700 -2,100 Descending Miami Center
08:17PM 26.7314 -80.1106 161° South 420 483 14,600 -1,860 Descending Miami Center
08:18PM 26.6153 -80.0772 166° South 405 466 13,000 -1,680 Descending Miami Center
08:19PM 26.5111 -80.0581 171° South 400 460 11,300 -1,140 Descending Miami Center
08:20PM 26.4486 -80.0494 173° South 308 354 11,100 -600 Descending Miami Center
08:20PM 26.4236 -80.0489 179° South 341 392 10,700 -1,020 Descending Miami Center
08:21PM 26.3608 -80.0494 180° South 305 351 10,100 -720 Descending Miami Center
08:21PM 26.3381 -80.0467 174° South 316 364 10,000 -120 Descending Miami Center
08:22PM 26.2858 -80.0497 183° South 300 345 10,000  Level Miami Center
08:22PM 26.2544 -80.0467 175° South 303 349 10,000 60 Level Miami Center
08:23PM 26.1958 -80.0519 185° South 304 350 10,100  Climbing Miami Center
08:23PM 26.1731 -80.0492 174° South 303 349 10,000  Descending Miami Center
08:24PM 26.1122 -80.0497 180° South 300 345 10,100 -420 Climbing Miami Center
08:24PM 26.0875 -80.0444 169° South 308 354 9,600 -1,680 Descending Miami Center
08:25PM 26.0392 -80.0478 184° South 297 342 8,600 -2,040 Descending Miami Center
08:25PM 26.0036 -80.0514 185° South 308 354 7,600 -2,100 Descending Miami Center
08:26PM 25.9617 -80.0619 193° South 286 329 6,500 -2,220 Descending Miami Center
08:26PM 25.9281 -80.0681 189° South 302 348 5,400 -2,220 Descending Miami Center
08:27PM 25.8778 -80.0806 193° South 277 319 4,300 -2,040 Descending Miami Center
08:27PM 25.8525 -80.0844 188° South 290 334 3,400 -1,800 Descending Miami Center
08:28PM 25.8103 -80.1108 209° Southwest 264 304 2,500 -1,320 Descending Miami Center
08:28PM 25.8097 -80.1364 269° West 248 285 2,100 -1,020 Descending Miami Center